Time;durP1;ratioP1;P1;durP2;ratioP2;P2;SDS_P1;SDS_P2;PMS_P1;PMS_P2;Temp;Humidity;BMP_temperature;BMP_pressure;BME280_temperature;BME280_humidity;BME280_pressure;Samples;Min_cycle;Max_cycle;Signal;HPM_P1;HPM_P2
2021/10/07 00:00:08;;;;;;;2.28;1.83;;;;;;;7.35;100.00;96551.00;1031101;28;20034;-67
2021/10/07 00:00:42;;;;;;;3.42;2.30;;;;;;;7.30;100.00;96541.19;1029882;28;20149;-68
2021/10/07 00:01:12;;;;;;;2.33;2.00;;;;;;;7.36;100.00;96549.97;1022400;28;20259;-67
2021/10/07 00:01:42;;;;;;;3.58;1.90;;;;;;;7.35;100.00;96555.41;1023631;28;20023;-66
2021/10/07 00:02:16;;;;;;;4.00;2.10;;;;;;;7.33;100.00;96556.41;1023077;28;20020;-67
2021/10/07 00:02:46;;;;;;;1.77;1.58;;;;;;;7.31;100.00;96552.44;1027678;28;20043;-64
2021/10/07 00:03:16;;;;;;;3.53;1.63;;;;;;;7.33;100.00;96551.19;1038848;28;20264;-64
2021/10/07 00:03:47;;;;;;;3.22;1.90;;;;;;;7.36;100.00;96551.78;1039377;28;20037;-67
2021/10/07 00:04:17;;;;;;;2.85;2.05;;;;;;;7.36;100.00;96551.78;1030746;28;20112;-68
2021/10/07 00:04:48;;;;;;;3.65;2.20;;;;;;;7.32;100.00;96548.81;1027572;28;20512;-67
2021/10/07 00:05:18;;;;;;;2.78;1.98;;;;;;;7.34;100.00;96552.00;1026670;28;20725;-67
2021/10/07 00:05:49;;;;;;;3.40;1.90;;;;;;;7.33;100.00;96551.19;1027130;28;20042;-65
2021/10/07 00:06:20;;;;;;;2.85;2.03;;;;;;;7.34;100.00;96546.75;1027694;28;20081;-67
2021/10/07 00:06:50;;;;;;;3.20;2.00;;;;;;;7.28;100.00;96540.63;1022940;28;20067;-68
2021/10/07 00:07:21;;;;;;;5.60;2.10;;;;;;;7.33;100.00;96545.97;1022782;29;20365;-65
2021/10/07 00:07:51;;;;;;;2.78;1.92;;;;;;;7.35;100.00;96547.59;1022775;29;20039;-64
2021/10/07 00:08:21;;;;;;;2.05;1.77;;;;;;;7.29;100.00;96539.59;1026885;28;20031;-69
2021/10/07 00:08:52;;;;;;;4.30;2.10;;;;;;;7.32;100.00;96544.38;1026771;28;20780;-67
2021/10/07 00:09:22;;;;;;;3.90;1.77;;;;;;;7.30;100.00;96545.63;1034995;28;20040;-67
2021/10/07 00:09:53;;;;;;;4.30;2.00;;;;;;;7.29;100.00;96546.66;1034703;28;20033;-66
2021/10/07 00:10:23;;;;;;;3.67;1.83;;;;;;;7.25;100.00;96538.47;1039075;28;20029;-66
2021/10/07 00:10:54;;;;;;;6.25;2.15;;;;;;;7.31;100.00;96542.00;1038897;28;20433;-68
2021/10/07 00:11:24;;;;;;;3.35;2.05;;;;;;;7.30;100.00;96546.41;1030630;28;20045;-66
2021/10/07 00:11:55;;;;;;;2.10;1.90;;;;;;;7.30;100.00;96543.00;1034863;28;20061;-61
2021/10/07 00:12:25;;;;;;;2.38;1.75;;;;;;;7.29;100.00;96544.84;1031157;28;20033;-65
2021/10/07 00:12:56;;;;;;;4.32;1.90;;;;;;;7.23;100.00;96537.88;1026212;28;20038;-68
2021/10/07 00:13:26;;;;;;;5.03;2.28;;;;;;;7.31;100.00;96542.00;1022552;29;20038;-67
2021/10/07 00:13:57;;;;;;;4.38;2.25;;;;;;;7.26;100.00;96534.03;1026674;28;20045;-66
2021/10/07 00:14:27;;;;;;;5.57;2.28;;;;;;;7.32;100.00;96543.59;1026815;28;20494;-66
2021/10/07 00:14:58;;;;;;;2.80;1.80;;;;;;;7.31;100.00;96544.63;1026133;28;20551;-68
2021/10/07 00:15:29;;;;;;;2.80;2.00;;;;;;;7.28;100.00;96545.06;1026835;28;20031;-66
2021/10/07 00:15:59;;;;;;;4.43;2.00;;;;;;;7.26;100.00;96529.59;1026887;28;20042;-66
2021/10/07 00:16:30;;;;;;;2.42;1.85;;;;;;;7.28;100.00;96540.63;1022634;28;20114;-67
2021/10/07 00:17:00;;;;;;;4.80;2.30;;;;;;;7.24;100.00;96536.88;1026722;28;20030;-67
2021/10/07 00:17:31;;;;;;;2.20;1.85;;;;;;;7.33;100.00;96542.56;1022804;29;20023;-66
2021/10/07 00:18:01;;;;;;;3.53;2.28;;;;;;;7.33;100.00;96550.41;1026989;28;20042;-66
2021/10/07 00:18:37;;;;;;;5.03;2.13;;;;;;;7.32;100.00;96544.38;1026335;28;20030;-65
2021/10/07 00:19:08;;;;;;;4.53;2.00;;;;;;;7.32;100.00;96549.59;1027624;28;20117;-67
2021/10/07 00:19:38;;;;;;;4.55;2.00;;;;;;;7.31;100.00;96550.63;1027713;28;20791;-67
2021/10/07 00:20:10;;;;;;;3.67;2.08;;;;;;;7.35;100.00;96544.97;1027974;28;20408;-67
2021/10/07 00:20:40;;;;;;;3.33;2.00;;;;;;;7.36;100.00;96543.94;1036183;28;20038;-66
2021/10/07 00:21:18;;;;;;;2.38;2.00;;;;;;;7.36;100.00;96543.94;1039090;28;20347;-65
2021/10/07 00:21:48;;;;;;;5.32;2.08;;;;;;;7.38;100.00;96542.72;1038637;28;20033;-64
2021/10/07 00:22:19;;;;;;;2.75;1.70;;;;;;;7.35;100.00;96550.19;1034973;28;20762;-68
2021/10/07 00:22:50;;;;;;;3.88;2.17;;;;;;;7.34;100.00;96541.53;1030143;28;20443;-67
2021/10/07 00:23:25;;;;;;;2.80;2.30;;;;;;;7.30;100.00;96543.81;1027264;28;20764;-66
2021/10/07 00:24:08;;;;;;;2.35;1.80;;;;;;;7.35;100.00;96550.19;1031508;28;20494;-65
2021/10/07 00:24:39;;;;;;;3.50;2.00;;;;;;;7.33;100.00;96543.38;1037332;28;20273;-68
2021/10/07 00:25:12;;;;;;;2.08;1.65;;;;;;;7.32;100.00;96546.22;1041003;28;20264;-66
2021/10/07 00:25:43;;;;;;;5.13;1.85;;;;;;;7.33;100.00;96548.59;1041104;28;20907;-66
2021/10/07 00:26:13;;;;;;;4.18;2.00;;;;;;;7.33;100.00;96556.41;1038939;28;20311;-66
2021/10/07 00:26:46;;;;;;;2.55;1.85;;;;;;;7.33;100.00;96550.41;1038569;28;20445;-66
2021/10/07 00:27:16;;;;;;;8.18;2.78;;;;;;;7.28;100.00;96539.84;1030779;28;20058;-66
2021/10/07 00:27:46;;;;;;;3.75;1.83;;;;;;;7.37;100.00;96550.75;1034696;28;20339;-66
2021/10/07 00:28:17;;;;;;;3.35;2.17;;;;;;;7.36;100.00;96544.75;1030193;28;20126;-66
2021/10/07 00:28:47;;;;;;;3.00;1.95;;;;;;;7.32;100.00;96549.59;1035195;28;20038;-66
2021/10/07 00:30:17;;;;;;;4.43;2.20;;;;;;;7.33;100.00;96545.97;1026590;28;20089;-67
2021/10/07 00:30:48;;;;;;;3.75;1.85;;;;;;;7.37;100.00;96548.16;1018767;29;20765;-66
2021/10/07 00:31:22;;;;;;;3.00;2.00;;;;;;;7.29;100.00;96538.81;1018633;29;20036;-69
2021/10/07 00:31:59;;;;;;;2.08;1.88;;;;;;;7.32;100.00;96543.59;1028057;28;20066;-67
2021/10/07 00:32:36;;;;;;;7.57;2.50;;;;;;;7.37;100.00;96548.16;1033144;28;20917;-69
2021/10/07 00:33:24;;;;;;;4.10;2.40;;;;;;;7.36;100.00;96549.16;1032520;28;20278;-67
2021/10/07 00:35:35;;;;;;;2.40;1.95;;;;;;;7.32;100.00;96544.38;1035581;28;20276;-65
2021/10/07 00:39:25;;;;;;;4.15;2.17;;;;;;;7.31;100.00;96555.84;1039052;28;20266;-64
2021/10/07 00:39:55;;;;;;;3.90;2.40;;;;;;;7.31;100.00;96550.63;1038705;28;20804;-66
2021/10/07 00:40:26;;;;;;;2.70;2.00;;;;;;;7.33;100.00;96548.59;1040691;28;20013;-65
2021/10/07 00:40:59;;;;;;;3.03;2.42;;;;;;;7.30;100.00;96551.63;1038151;28;20025;-63
2021/10/07 00:41:30;;;;;;;5.13;2.33;;;;;;;7.30;100.00;96545.63;1030741;28;20219;-66
2021/10/07 00:42:01;;;;;;;4.60;2.15;;;;;;;7.33;100.00;96545.19;1022315;29;20820;-65
2021/10/07 00:42:31;;;;;;;4.57;2.28;;;;;;;7.32;100.00;96543.59;1023465;28;20291;-65
2021/10/07 00:43:02;;;;;;;3.10;2.00;;;;;;;7.32;100.00;96547.00;1023050;28;20027;-68
2021/10/07 00:43:32;;;;;;;3.53;2.08;;;;;;;7.31;100.00;96548.03;1022906;28;20070;-64
2021/10/07 00:44:04;;;;;;;2.97;2.08;;;;;;;7.35;100.00;96547.59;1026732;28;20022;-67
2021/10/07 00:44:35;;;;;;;3.90;2.22;;;;;;;7.27;100.00;96536.41;1027046;28;20031;-65
2021/10/07 00:45:07;;;;;;;2.80;2.20;;;;;;;7.33;100.00;96545.19;1027549;28;20341;-66
2021/10/07 00:45:37;;;;;;;3.30;2.25;;;;;;;7.36;100.00;96543.94;1028020;28;20356;-66
2021/10/07 00:46:08;;;;;;;4.70;2.13;;;;;;;7.36;100.00;96536.91;1031144;28;20631;-68
2021/10/07 00:46:51;;;;;;;7.90;2.30;;;;;;;7.39;100.00;96543.50;1031475;28;20018;-67
2021/10/07 00:47:22;;;;;;;2.50;1.67;;;;;;;7.38;100.00;96542.72;1036562;28;20026;-66
2021/10/07 00:47:52;;;;;;;3.28;1.85;;;;;;;7.35;100.00;96545.75;1030939;28;20300;-68
2021/10/07 00:48:23;;;;;;;3.00;2.40;;;;;;;7.33;100.00;96542.56;1030280;28;20082;-68
2021/10/07 00:48:53;;;;;;;4.13;2.40;;;;;;;7.37;100.00;96545.53;1026483;28;20030;-66
2021/10/07 00:49:24;;;;;;;2.58;1.45;;;;;;;7.33;100.00;96540.75;1030964;28;20543;-65
2021/10/07 00:49:54;;;;;;;3.17;2.53;;;;;;;7.35;100.00;96544.97;1030859;28;20034;-66
2021/10/07 00:50:25;;;;;;;2.25;2.03;;;;;;;7.32;100.00;96541.78;1034462;28;20109;-65
2021/10/07 00:50:55;;;;;;;5.45;2.20;;;;;;;7.32;100.00;96544.38;1035020;28;20037;-65
2021/10/07 00:51:27;;;;;;;6.18;2.65;;;;;;;7.32;100.00;96544.38;1030898;28;20076;-66
2021/10/07 00:51:57;;;;;;;3.25;1.98;;;;;;;7.35;100.00;96545.75;1031297;28;20125;-67
2021/10/07 00:52:28;;;;;;;5.03;2.53;;;;;;;7.37;100.00;96546.31;1030453;28;20269;-66
2021/10/07 00:52:58;;;;;;;3.78;2.25;;;;;;;7.42;100.00;96550.91;1030174;28;20479;-66
2021/10/07 00:53:29;;;;;;;3.13;2.08;;;;;;;7.40;100.00;96551.09;1035008;28;20033;-65
2021/10/07 00:53:59;;;;;;;3.45;2.15;;;;;;;7.41;100.00;96546.69;1022895;28;20523;-67
2021/10/07 00:54:30;;;;;;;3.75;1.80;;;;;;;7.44;100.00;96551.44;1026653;28;20022;-65
2021/10/07 00:55:00;;;;;;;4.18;1.80;;;;;;;7.43;100.00;96544.66;1031094;28;20022;-65
2021/10/07 00:55:30;;;;;;;3.72;2.33;;;;;;;7.44;100.00;96547.03;1026349;28;20480;-66
2021/10/07 00:56:01;;;;;;;2.72;2.15;;;;;;;7.41;100.00;96544.06;1038955;28;20029;-67
2021/10/07 00:56:35;;;;;;;4.55;2.15;;;;;;;7.45;100.00;96553.88;1030638;28;20022;-67
2021/10/07 00:57:09;;;;;;;3.90;1.95;;;;;;;7.44;100.00;96551.44;1029641;28;20772;-66
2021/10/07 00:57:40;;;;;;;5.43;2.28;;;;;;;7.44;100.00;96551.44;1027924;28;20270;-65
2021/10/07 00:58:11;;;;;;;2.83;1.92;;;;;;;7.39;100.00;96544.28;1028819;28;20270;-66
2021/10/07 00:58:41;;;;;;;3.92;1.98;;;;;;;7.37;100.00;96546.31;1034710;28;20296;-68
2021/10/07 00:59:11;;;;;;;2.35;2.10;;;;;;;7.42;100.00;96550.91;1034492;28;20627;-67
2021/10/07 00:59:42;;;;;;;1.80;1.67;;;;;;;7.43;100.00;96544.66;1034806;28;20788;-65
2021/10/07 01:00:14;;;;;;;3.55;1.90;;;;;;;7.46;100.00;96559.88;1023117;29;20031;-67
2021/10/07 01:00:45;;;;;;;3.05;1.95;;;;;;;7.47;100.00;96548.41;1028909;28;20126;-66
2021/10/07 01:01:15;;;;;;;4.05;2.00;;;;;;;7.48;100.00;96552.63;1028096;28;20416;-64
2021/10/07 01:01:46;;;;;;;4.05;2.08;;;;;;;7.49;100.00;96554.22;1027034;28;20035;-65
2021/10/07 01:02:16;;;;;;;3.53;2.00;;;;;;;7.44;100.00;96546.22;1030674;28;20030;-64
2021/10/07 01:02:47;;;;;;;2.75;2.00;;;;;;;7.51;100.00;96557.38;1026106;28;20054;-65
2021/10/07 01:03:18;;;;;;;3.55;2.35;;;;;;;7.50;100.00;96555.78;1030653;28;20038;-66
2021/10/07 01:03:48;;;;;;;2.65;2.00;;;;;;;7.51;100.00;96555.59;1030977;28;20073;-65
2021/10/07 01:04:19;;;;;;;2.17;1.98;;;;;;;7.47;100.00;96548.41;1031233;28;20027;-66
2021/10/07 01:04:49;;;;;;;4.25;2.22;;;;;;;7.50;100.00;96556.59;1030366;28;20479;-65
2021/10/07 01:05:21;;;;;;;5.18;2.20;;;;;;;7.50;100.00;96553.97;1030816;28;20495;-65
2021/10/07 01:05:52;;;;;;;4.32;2.40;;;;;;;7.46;100.00;96550.22;1022889;29;20028;-65
2021/10/07 01:06:22;;;;;;;4.28;2.42;;;;;;;7.54;100.00;96556.94;1027865;28;20265;-66
2021/10/07 01:06:53;;;;;;;3.50;2.08;;;;;;;7.55;100.00;96558.56;1026709;28;20019;-66
2021/10/07 01:07:23;;;;;;;3.65;2.20;;;;;;;7.50;100.00;96548.75;1027043;28;20023;-67
2021/10/07 01:07:53;;;;;;;3.90;2.00;;;;;;;7.53;100.00;96555.34;1021826;28;20019;-66
2021/10/07 01:08:24;;;;;;;5.40;2.00;;;;;;;7.51;100.00;96549.53;1026994;28;20015;-66
2021/10/07 01:08:54;;;;;;;4.53;1.95;;;;;;;7.52;100.00;96551.94;1026668;28;20121;-67
2021/10/07 01:09:25;;;;;;;2.22;1.80;;;;;;;7.55;100.00;96553.31;1026755;28;20073;-66
2021/10/07 01:09:56;;;;;;;3.72;2.30;;;;;;;7.56;100.00;96553.09;1029459;28;20042;-65
2021/10/07 01:10:26;;;;;;;3.20;2.00;;;;;;;7.58;100.00;96552.88;1031015;28;20026;-66
2021/10/07 01:10:56;;;;;;;2.90;2.42;;;;;;;7.54;100.00;96544.69;1030855;28;20023;-65
2021/10/07 01:11:30;;;;;;;2.83;2.17;;;;;;;7.55;100.00;96558.56;1032175;28;20018;-66
2021/10/07 01:12:01;;;;;;;4.80;2.20;;;;;;;7.56;100.00;96552.28;1030855;28;20014;-66
2021/10/07 01:12:32;;;;;;;3.25;2.15;;;;;;;7.54;100.00;96554.31;1023324;28;20294;-66
2021/10/07 01:13:02;;;;;;;2.90;2.13;;;;;;;7.50;100.00;96545.34;1027412;28;20262;-66
2021/10/07 01:13:38;;;;;;;3.55;2.22;;;;;;;7.58;100.00;96547.66;1034760;28;20136;-65
2021/10/07 01:14:08;;;;;;;5.05;2.20;;;;;;;7.57;100.00;96551.28;1035857;28;20026;-67
2021/10/07 01:14:48;;;;;;;5.35;2.50;;;;;;;7.60;100.00;96556.06;1034785;28;20781;-67
2021/10/07 01:15:18;;;;;;;4.40;1.90;;;;;;;7.59;100.00;96554.47;1038919;28;20009;-65
2021/10/07 01:15:49;;;;;;;3.75;2.38;;;;;;;7.59;100.00;96558.91;1033493;28;20029;-66
2021/10/07 01:16:19;;;;;;;3.30;2.20;;;;;;;7.61;100.00;96557.63;1024059;28;20016;-65
2021/10/07 01:16:50;;;;;;;4.15;2.15;;;;;;;7.62;100.00;96561.84;1026691;28;20508;-70
2021/10/07 01:17:28;;;;;;;2.13;1.90;;;;;;;7.63;100.00;96560.84;1026762;28;20421;-66
2021/10/07 01:18:01;;;;;;;3.40;2.00;;;;;;;7.52;100.00;96546.72;1024971;28;20023;-64
2021/10/07 01:18:31;;;;;;;4.20;2.10;;;;;;;7.60;100.00;96550.81;1026272;28;20254;-65
2021/10/07 01:19:02;;;;;;;4.40;2.42;;;;;;;7.59;100.00;96551.84;1026946;28;20258;-67
2021/10/07 01:19:38;;;;;;;3.03;2.20;;;;;;;7.61;100.00;96551.63;1026781;28;20015;-67
2021/10/07 01:20:09;;;;;;;4.38;2.50;;;;;;;7.64;100.00;96554.56;1031443;28;20030;-67
2021/10/07 01:20:41;;;;;;;4.05;2.20;;;;;;;7.65;100.00;96555.41;1031348;28;20262;-68
2021/10/07 01:21:12;;;;;;;3.53;1.70;;;;;;;7.58;100.00;96550.28;1030250;28;20340;-68
2021/10/07 01:21:42;;;;;;;3.33;1.85;;;;;;;7.64;100.00;96556.41;1027408;28;20262;-67
2021/10/07 01:22:13;;;;;;;2.83;2.08;;;;;;;7.63;100.00;96555.59;1029393;28;20022;-65
2021/10/07 01:22:44;;;;;;;4.65;2.03;;;;;;;7.62;100.00;96543.56;1034495;28;20041;-66
2021/10/07 01:23:17;;;;;;;2.60;2.20;;;;;;;7.58;100.00;96542.44;1030240;28;20341;-68
2021/10/07 01:23:48;;;;;;;2.60;2.17;;;;;;;7.66;100.00;96555.16;1030434;28;20033;-69
2021/10/07 01:24:19;;;;;;;4.43;1.77;;;;;;;7.67;100.00;96546.28;1031219;28;20276;-66
2021/10/07 01:24:49;;;;;;;3.85;2.10;;;;;;;7.68;100.00;96553.13;1034965;28;20084;-65
2021/10/07 01:25:20;;;;;;;5.40;2.20;;;;;;;7.66;100.00;96549.94;1030760;28;20113;-68
2021/10/07 01:25:50;;;;;;;4.80;2.13;;;;;;;7.67;100.00;96550.72;1030361;28;20026;-66
2021/10/07 01:26:21;;;;;;;2.25;2.05;;;;;;;7.62;100.00;96543.56;1027063;28;20504;-66
2021/10/07 01:26:51;;;;;;;4.55;2.17;;;;;;;7.63;100.00;96544.38;1026640;28;20481;-65
2021/10/07 01:27:24;;;;;;;2.80;2.10;;;;;;;7.68;100.00;96549.69;1026842;28;20051;-65
2021/10/07 01:27:58;;;;;;;4.25;2.45;;;;;;;7.66;100.00;96549.94;1026772;28;20712;-67
2021/10/07 01:28:28;;;;;;;3.88;2.30;;;;;;;7.68;100.00;96553.13;1026656;28;20262;-65
2021/10/07 01:28:59;;;;;;;4.05;1.83;;;;;;;7.69;100.00;96553.94;1026794;28;20269;-66
2021/10/07 01:29:29;;;;;;;3.45;2.40;;;;;;;7.70;100.00;96552.91;1026396;28;20022;-66
2021/10/07 01:30:02;;;;;;;2.88;2.20;;;;;;;7.73;100.00;96555.06;1031147;28;20061;-67
2021/10/07 01:30:33;;;;;;;2.38;1.80;;;;;;;7.68;100.00;96553.13;1035341;28;20029;-66
2021/10/07 01:31:04;;;;;;;8.45;2.13;;;;;;;7.67;100.00;96556.75;1033019;28;20702;-67
2021/10/07 01:31:35;;;;;;;3.05;1.83;;;;;;;7.68;100.00;96552.31;1029584;28;20049;-63
2021/10/07 01:32:06;;;;;;;5.35;2.20;;;;;;;7.64;100.00;96541.53;1030753;28;20276;-65
2021/10/07 01:32:40;;;;;;;2.50;1.90;;;;;;;7.64;100.00;96541.53;1029778;28;20022;-65
2021/10/07 01:33:10;;;;;;;5.05;2.53;;;;;;;7.71;100.00;96554.47;1026582;28;20336;-66
2021/10/07 01:33:41;;;;;;;5.30;2.25;;;;;;;7.71;100.00;96557.09;1020517;28;20402;-67
2021/10/07 01:34:11;;;;;;;4.15;1.92;;;;;;;7.72;100.00;96549.06;1025491;28;20022;-65
2021/10/07 01:34:42;;;;;;;2.00;1.70;;;;;;;7.69;100.00;96554.72;1027016;28;20046;-65
2021/10/07 01:35:12;;;;;;;2.17;1.98;;;;;;;7.66;100.00;96542.09;1039077;28;20022;-64
2021/10/07 01:35:42;;;;;;;2.50;1.80;;;;;;;7.70;100.00;96558.91;1037307;28;20028;-69
2021/10/07 01:36:13;;;;;;;3.58;1.80;;;;;;;7.71;100.00;96547.47;1030430;28;20026;-63
2021/10/07 01:36:43;;;;;;;3.03;2.08;;;;;;;7.69;100.00;96549.50;1022710;28;20039;-66
2021/10/07 01:37:17;;;;;;;3.45;2.15;;;;;;;7.74;100.00;96552.22;1026754;28;20385;-67
2021/10/07 01:37:47;;;;;;;4.75;2.08;;;;;;;7.74;100.00;96552.22;1027652;28;20034;-66
2021/10/07 01:38:18;;;;;;;5.43;2.30;;;;;;;7.74;100.00;96547.00;1030868;28;20679;-68
2021/10/07 01:38:48;;;;;;;3.42;2.10;;;;;;;7.75;100.00;96553.81;1034615;28;20375;-66
2021/10/07 01:39:19;;;;;;;2.65;1.73;;;;;;;7.66;100.00;96539.50;1030376;28;20378;-64
2021/10/07 01:39:49;;;;;;;2.28;1.98;;;;;;;7.74;100.00;96547.00;1031066;28;20573;-65
2021/10/07 01:40:20;;;;;;;2.97;2.10;;;;;;;7.73;100.00;96550.63;1030519;28;20447;-69
2021/10/07 01:40:50;;;;;;;2.67;1.70;;;;;;;7.68;100.00;96542.69;1030740;28;20022;-65
2021/10/07 01:41:21;;;;;;;4.53;2.38;;;;;;;7.75;100.00;96543.38;1035107;28;20018;-65
2021/10/07 01:41:51;;;;;;;3.92;2.13;;;;;;;7.74;100.00;96551.44;1034441;28;20123;-64
2021/10/07 01:42:22;;;;;;;6.20;2.15;;;;;;;7.69;100.00;96538.25;1038618;28;20025;-66
2021/10/07 01:42:52;;;;;;;2.97;2.05;;;;;;;7.72;100.00;96543.03;1036131;28;20026;-67
2021/10/07 01:43:23;;;;;;;3.97;2.00;;;;;;;7.73;100.00;96555.06;1030228;28;20042;-67
2021/10/07 01:43:55;;;;;;;3.05;2.05;;;;;;;7.72;100.00;96556.88;1028051;28;20018;-66
2021/10/07 01:44:26;;;;;;;2.97;1.70;;;;;;;7.72;100.00;96556.88;1032043;28;20025;-65
2021/10/07 01:44:57;;;;;;;2.92;2.00;;;;;;;7.74;100.00;96551.44;1037413;28;20770;-66
2021/10/07 01:45:27;;;;;;;2.10;1.85;;;;;;;7.74;100.00;96552.22;1040786;28;20267;-66
2021/10/07 01:45:58;;;;;;;3.28;2.05;;;;;;;7.71;100.00;96555.31;1042491;28;20017;-64
2021/10/07 01:46:28;;;;;;;4.18;1.75;;;;;;;7.73;100.00;96558.47;1042410;28;20017;-65
2021/10/07 01:46:59;;;;;;;2.42;1.75;;;;;;;7.76;100.00;96552.00;1039112;28;20376;-66
2021/10/07 01:47:29;;;;;;;5.22;2.05;;;;;;;7.64;100.00;96541.53;1042712;28;20828;-65
2021/10/07 01:48:04;;;;;;;2.20;1.88;;;;;;;7.72;100.00;96554.28;1034225;28;20022;-67
2021/10/07 01:48:35;;;;;;;3.67;2.00;;;;;;;7.62;100.00;96538.34;1030260;28;20030;-68
2021/10/07 01:49:06;;;;;;;3.33;1.92;;;;;;;7.76;100.00;96554.63;1030046;28;20683;-67
2021/10/07 01:49:37;;;;;;;6.05;1.80;;;;;;;7.76;100.00;96549.41;1028925;28;20076;-67
2021/10/07 01:50:09;;;;;;;3.28;2.00;;;;;;;7.70;100.00;96551.06;1030486;28;20315;-66
2021/10/07 01:50:39;;;;;;;4.30;2.10;;;;;;;7.72;100.00;96554.28;1024622;28;20038;-67
2021/10/07 01:51:10;;;;;;;2.63;1.70;;;;;;;7.73;100.00;96553.25;1026834;28;20266;-64
2021/10/07 01:51:40;;;;;;;3.88;1.98;;;;;;;7.75;100.00;96553.03;1030535;28;20019;-67
2021/10/07 01:52:11;;;;;;;3.88;2.20;;;;;;;7.72;100.00;96554.28;1027691;28;20023;-64
2021/10/07 01:52:41;;;;;;;2.95;1.75;;;;;;;7.73;100.00;96560.28;1026362;28;20019;-68
2021/10/07 01:53:12;;;;;;;3.72;2.28;;;;;;;7.69;100.00;96551.31;1028543;28;20062;-65
2021/10/07 01:53:48;;;;;;;4.50;2.20;;;;;;;7.66;100.00;96549.94;1026873;28;20030;-69
2021/10/07 01:54:18;;;;;;;3.83;2.15;;;;;;;7.67;100.00;96555.94;1030583;28;20113;-66
2021/10/07 01:54:49;;;;;;;2.33;1.83;;;;;;;7.68;100.00;96562.75;1026099;28;20278;-67
2021/10/07 01:55:19;;;;;;;2.00;1.80;;;;;;;7.63;100.00;96555.59;1026606;28;20078;-67
2021/10/07 01:55:50;;;;;;;2.97;1.70;;;;;;;7.62;100.00;96548.81;1029985;28;20022;-66
2021/10/07 01:56:20;;;;;;;2.97;2.00;;;;;;;7.67;100.00;96561.19;1030166;28;20030;-66
2021/10/07 01:56:51;;;;;;;3.95;2.03;;;;;;;7.65;100.00;96558.00;1026426;28;20755;-66
2021/10/07 01:57:21;;;;;;;3.80;1.80;;;;;;;7.67;100.00;96555.94;1029989;28;20805;-66
2021/10/07 01:57:54;;;;;;;2.33;2.00;;;;;;;7.70;100.00;96561.53;1026710;28;20504;-66
2021/10/07 01:58:25;;;;;;;3.38;1.83;;;;;;;7.67;100.00;96551.53;1031667;28;20018;-67
2021/10/07 01:58:56;;;;;;;2.30;1.92;;;;;;;7.72;100.00;96550.88;1035051;28;20268;-66
2021/10/07 01:59:26;;;;;;;3.10;1.70;;;;;;;7.68;100.00;96545.31;1036022;28;20053;-67
2021/10/07 01:59:59;;;;;;;4.60;2.47;;;;;;;7.73;100.00;96557.69;1039465;28;20350;-65
2021/10/07 02:00:30;;;;;;;2.15;1.75;;;;;;;7.72;100.00;96559.50;1043752;28;20429;-66
2021/10/07 02:01:00;;;;;;;6.43;1.98;;;;;;;7.71;100.00;96554.47;1043428;28;20264;-67
2021/10/07 02:01:32;;;;;;;6.32;2.60;;;;;;;7.66;100.00;96544.72;1047250;28;20020;-67
2021/10/07 02:02:03;;;;;;;3.38;2.13;;;;;;;7.72;100.00;96559.50;1039610;28;20061;-68
2021/10/07 02:02:33;;;;;;;6.82;1.95;;;;;;;7.72;100.00;96556.09;1030986;28;20265;-66
2021/10/07 02:03:04;;;;;;;2.13;1.63;;;;;;;7.73;100.00;96555.06;1026567;28;20030;-67
2021/10/07 02:03:34;;;;;;;2.00;1.65;;;;;;;7.64;100.00;96540.72;1027818;28;20038;-65
2021/10/07 02:04:06;;;;;;;3.22;2.20;;;;;;;7.73;100.00;96555.06;1035519;28;20045;-68
2021/10/07 02:04:36;;;;;;;3.72;2.35;;;;;;;7.74;100.00;96559.25;1035364;28;20458;-66
2021/10/07 02:05:08;;;;;;;3.88;2.45;;;;;;;7.72;100.00;96554.28;1031150;28;20292;-65
2021/10/07 02:05:38;;;;;;;2.90;2.10;;;;;;;7.72;100.00;96554.28;1027293;28;20096;-67
2021/10/07 02:06:08;;;;;;;4.28;1.90;;;;;;;7.71;100.00;96557.91;1027566;28;20691;-66
2021/10/07 02:06:39;;;;;;;4.38;1.90;;;;;;;7.70;100.00;96560.72;1026790;28;20051;-68
2021/10/07 02:07:09;;;;;;;3.75;2.10;;;;;;;7.68;100.00;96558.34;1023700;28;20086;-70
2021/10/07 02:07:40;;;;;;;2.75;2.10;;;;;;;7.63;100.00;96555.59;1027115;28;20097;-66
2021/10/07 02:08:10;;;;;;;3.00;2.17;;;;;;;7.66;100.00;96555.16;1031411;28;20022;-65
2021/10/07 02:08:41;;;;;;;4.40;2.22;;;;;;;7.65;100.00;96556.19;1023535;28;20038;-66
2021/10/07 02:09:11;;;;;;;2.30;1.77;;;;;;;7.61;100.00;96549.78;1023271;28;20026;-68
2021/10/07 02:09:41;;;;;;;3.45;2.20;;;;;;;7.68;100.00;96558.34;1023291;28;20035;-66
2021/10/07 02:10:15;;;;;;;5.72;2.33;;;;;;;7.67;100.00;96556.75;1031667;28;20052;-67
2021/10/07 02:10:45;;;;;;;3.88;2.20;;;;;;;7.66;100.00;96560.38;1036294;28;20034;-65
2021/10/07 02:11:16;;;;;;;3.33;1.98;;;;;;;7.66;100.00;96559.59;1039476;28;20272;-67
2021/10/07 02:11:46;;;;;;;3.88;2.10;;;;;;;7.65;100.00;96558.81;1039227;28;20033;-66
2021/10/07 02:12:16;;;;;;;4.18;2.08;;;;;;;7.64;100.00;96557.19;1031807;28;20026;-66
2021/10/07 02:12:48;;;;;;;3.38;1.95;;;;;;;7.64;100.00;96561.63;1030961;28;20026;-68
2021/10/07 02:13:18;;;;;;;2.60;2.00;;;;;;;7.60;100.00;96550.81;1035300;28;20113;-67
2021/10/07 02:13:49;;;;;;;3.50;1.83;;;;;;;7.65;100.00;96553.56;1027211;28;20285;-65
2021/10/07 02:14:20;;;;;;;3.00;1.95;;;;;;;7.66;100.00;96554.38;1028208;28;20065;-66
2021/10/07 02:14:50;;;;;;;3.22;2.15;;;;;;;7.66;100.00;96552.56;1039492;28;20283;-67
2021/10/07 02:15:21;;;;;;;3.80;2.10;;;;;;;7.66;100.00;96555.16;1036685;28;20033;-68
2021/10/07 02:15:51;;;;;;;2.22;2.03;;;;;;;7.68;100.00;96547.91;1031145;28;20067;-67
2021/10/07 02:16:21;;;;;;;3.25;1.95;;;;;;;7.70;100.00;96552.91;1030746;28;20031;-66
2021/10/07 02:16:52;;;;;;;3.03;2.25;;;;;;;7.69;100.00;96552.09;1035288;28;20605;-66
2021/10/07 02:17:22;;;;;;;6.72;2.33;;;;;;;7.70;100.00;96550.28;1031186;28;20057;-67
2021/10/07 02:17:53;;;;;;;3.08;2.10;;;;;;;7.68;100.00;96547.91;1035123;28;20026;-69
2021/10/07 02:18:23;;;;;;;4.40;1.92;;;;;;;7.66;100.00;96555.16;1035639;28;20014;-66
2021/10/07 02:18:54;;;;;;;4.30;2.13;;;;;;;7.67;100.00;96551.53;1035393;28;20088;-66
2021/10/07 02:19:24;;;;;;;3.10;1.80;;;;;;;7.66;100.00;96555.16;1035262;28;20030;-65
2021/10/07 02:19:55;;;;;;;4.47;2.17;;;;;;;7.70;100.00;96552.91;1027382;28;20035;-66
2021/10/07 02:20:25;;;;;;;3.67;2.45;;;;;;;7.69;100.00;96556.53;1031022;28;20030;-66
2021/10/07 02:20:58;;;;;;;5.20;2.67;;;;;;;7.54;100.00;96536.88;1027502;28;20066;-66
2021/10/07 02:21:29;;;;;;;3.17;1.77;;;;;;;7.59;100.00;96544.03;1031185;28;20516;-68
2021/10/07 02:21:59;;;;;;;1.90;1.70;;;;;;;7.65;100.00;96558.81;1030771;28;20270;-66
2021/10/07 02:22:30;;;;;;;2.90;1.95;;;;;;;7.70;100.00;96553.69;1035815;28;20029;-66
2021/10/07 02:23:00;;;;;;;3.33;1.83;;;;;;;7.70;100.00;96560.72;1034070;28;20029;-66
2021/10/07 02:23:31;;;;;;;2.60;1.92;;;;;;;7.71;100.00;96555.31;1035231;28;20026;-66
2021/10/07 02:24:01;;;;;;;3.92;2.35;;;;;;;7.64;100.00;96540.72;1035297;28;20069;-67
2021/10/07 02:24:35;;;;;;;2.08;1.88;;;;;;;7.67;100.00;96548.91;1023331;28;20023;-67
2021/10/07 02:25:06;;;;;;;2.83;1.92;;;;;;;7.69;100.00;96554.72;1031443;28;20113;-66
2021/10/07 02:25:36;;;;;;;3.50;2.40;;;;;;;7.72;100.00;96556.88;1030297;28;20322;-66
2021/10/07 02:26:07;;;;;;;3.33;2.20;;;;;;;7.72;100.00;96550.88;1028276;28;21055;-65
2021/10/07 02:26:37;;;;;;;3.13;2.22;;;;;;;7.73;100.00;96550.63;1031653;28;20031;-67
2021/10/07 02:27:07;;;;;;;3.85;2.38;;;;;;;7.72;100.00;96551.66;1035199;28;20033;-67
2021/10/07 02:27:40;;;;;;;2.30;2.10;;;;;;;7.72;100.00;96549.06;1039486;28;20024;-66
2021/10/07 02:28:11;;;;;;;3.63;2.20;;;;;;;7.74;100.00;96552.22;1036741;28;20116;-66
2021/10/07 02:28:44;;;;;;;3.83;2.00;;;;;;;7.73;100.00;96550.63;1040257;28;20288;-66
2021/10/07 02:29:17;;;;;;;5.40;2.30;;;;;;;7.72;100.00;96548.25;1035485;28;20261;-67
2021/10/07 02:29:48;;;;;;;5.50;2.10;;;;;;;7.77;100.00;96548.38;1034592;28;20276;-67
2021/10/07 02:30:18;;;;;;;4.72;2.13;;;;;;;7.76;100.00;96554.63;1027307;28;20444;-65
2021/10/07 02:30:49;;;;;;;2.88;2.00;;;;;;;7.71;100.00;96546.66;1031123;28;20030;-65
2021/10/07 02:31:22;;;;;;;2.58;1.98;;;;;;;7.70;100.00;96543.25;1031256;28;20420;-66
2021/10/07 02:31:53;;;;;;;2.88;2.08;;;;;;;7.72;100.00;96549.06;1034412;28;20327;-67
2021/10/07 02:32:26;;;;;;;2.50;1.90;;;;;;;7.73;100.00;96552.44;1034531;28;20047;-68
2021/10/07 02:32:56;;;;;;;2.30;2.10;;;;;;;7.74;100.00;96556.66;1031301;28;20054;-63